Anglesey Airport

About
Name: Anglesey Airport
Identifier:  VLY/EGOV
Serves:  Anglesey Gwynedd
Operator:  Operon
Public/Private:  Military/Public
Local Time:  23. Aug 09:57 BST
Description: Anglesey Airport is an airport owned by the Isle of Anglesey County Council on land leased from the Defence Infrastructure Organisation. The airport is situated at Llanfair yn Neubwll on the Isle of Anglesey, Wales. The leased site is part of RAF Valley, an RAF station teaching RAF pilots using BAE Hawks.
Source: Wikipedia
Location
Runways
Identifier Length (m/ft) Surface
01/19 1,639/5,377 Asphalt
08/26 1,280/4,200 Asphalt
14/32 2,290/7,513 Asphalt
Flights per Day
2 flights
Distance: 221km (137mi)
Punctuality
93% (0 flights per day delayed)
Delay Average: 75 minutes
Current Weather
 17 C (Humidity: 93%)
  17kt (31km/h / 19mph) from 200°
  Few clouds at 600 feet (182 meter)
  Broken clouds at 1,300 feet (396 meter)
  9km (6 mi.)
 METAR EGOV 230823Z 20017KT 9999 FEW006 BKN013 17/16 Q1023 BECMG SCT015 RMK GRN BECMG WHT

Current Flights

Departures
Number Departure To Airline
Arrivals
Number Arrival From Airline
 BE7614 08:25  Cardiff  Flybe

Current Delays

Departures
N/A
Arrivals
N/A

Destinations

Top Destinations
Airport Flights
per week
Seats
per week
  Cardiff (CWL) 19 575 2 82

Airlines & Planes

Top Airlines
Airline Flights
per Day
Seats
per Day
  Eastern Airways 2 82
Top Plane Types
Model Flights Seats
British-Aerospace Jetstream 41 2.8/day 82/day 82.16666666666667